Time;durP1;ratioP1;P1;durP2;ratioP2;P2;SDS_P1;SDS_P2;PMS_P1;PMS_P2;Temp;Humidity;BMP_temperature;BMP_pressure;BME280_temperature;BME280_humidity;BME280_pressure;Samples;Min_cycle;Max_cycle;Signal;HPM_P1;HPM_P2
2023/11/23 00:01:41;;;;;;;8.20;5.10;;;;;;;19.32;43.50;102424.22;5010189;28;20475;-68
2023/11/23 00:04:06;;;;;;;9.93;5.00;;;;;;;19.31;43.40;102417.22;5010769;28;20064;-67
2023/11/23 00:06:32;;;;;;;7.78;4.43;;;;;;;19.29;43.29;102414.69;5010584;28;20103;-67
2023/11/23 00:08:57;;;;;;;6.00;4.45;;;;;;;19.27;43.35;102407.81;5010776;28;20030;-67
2023/11/23 00:11:24;;;;;;;7.97;4.78;;;;;;;19.25;43.43;102402.63;5009927;28;20030;-67
2023/11/23 00:13:50;;;;;;;6.35;4.70;;;;;;;19.23;43.41;102401.84;5010084;28;20068;-67
2023/11/23 00:16:16;;;;;;;8.70;4.68;;;;;;;19.24;43.35;102405.34;5009686;28;20034;-67
2023/11/23 00:18:41;;;;;;;8.10;4.93;;;;;;;19.23;43.32;102403.63;5009574;28;20466;-67
2023/11/23 00:21:06;;;;;;;8.30;4.47;;;;;;;19.21;43.42;102395.81;5009194;28;20057;-68
2023/11/23 00:23:32;;;;;;;9.10;4.82;;;;;;;19.20;43.38;102399.38;5009567;28;20762;-69
2023/11/23 00:25:57;;;;;;;6.70;4.72;;;;;;;19.19;43.35;102403.00;5009563;28;20034;-67
2023/11/23 00:28:22;;;;;;;6.75;4.30;;;;;;;19.18;43.44;102404.78;5008995;28;20134;-68
2023/11/23 00:30:47;;;;;;;8.55;5.00;;;;;;;19.15;43.56;102389.13;5008838;28;20034;-68
2023/11/23 00:33:13;;;;;;;6.65;4.38;;;;;;;19.16;43.48;102392.59;5009239;28;20474;-67
2023/11/23 00:35:38;;;;;;;7.53;4.72;;;;;;;19.15;43.35;102388.25;5009679;28;20048;-67
2023/11/23 00:38:04;;;;;;;6.45;4.70;;;;;;;19.14;43.53;102386.56;5009488;28;20370;-69
2023/11/23 00:40:29;;;;;;;6.97;4.80;;;;;;;19.12;43.25;102376.09;5009871;28;20463;-67
2023/11/23 00:42:54;;;;;;;7.32;4.82;;;;;;;19.12;43.50;102380.50;5009067;28;20382;-66
2023/11/23 00:45:20;;;;;;;7.63;4.63;;;;;;;19.10;43.48;102370.03;5009658;28;20029;-67
2023/11/23 00:47:45;;;;;;;6.82;4.65;;;;;;;19.09;43.53;102370.13;5009083;28;20917;-69
2023/11/23 00:50:10;;;;;;;7.00;4.60;;;;;;;19.07;43.50;102362.28;5010126;28;20116;-66
2023/11/23 00:52:36;;;;;;;7.40;4.90;;;;;;;19.07;43.53;102370.22;5009028;28;20045;-67
2023/11/23 00:55:04;;;;;;;8.38;4.35;;;;;;;19.08;43.44;102381.66;5009112;28;20042;-67
2023/11/23 00:57:34;;;;;;;7.50;5.68;;;;;;;19.05;43.41;102366.81;5024520;28;20025;-68
2023/11/23 01:00:00;;;;;;;8.63;4.57;;;;;;;19.04;43.36;102365.13;5009381;28;20044;-69
2023/11/23 01:02:26;;;;;;;7.57;4.57;;;;;;;19.02;43.42;102362.56;5009814;28;20034;-66
2023/11/23 01:04:52;;;;;;;6.55;4.63;;;;;;;19.01;43.51;102363.53;5009818;28;21298;-68
2023/11/23 01:07:17;;;;;;;7.45;5.28;;;;;;;19.01;43.54;102362.69;5008873;28;20382;-68
2023/11/23 01:09:42;;;;;;;6.80;4.30;;;;;;;19.00;43.47;102359.19;5008995;28;20104;-68
2023/11/23 01:12:08;;;;;;;8.02;4.80;;;;;;;18.99;43.48;102349.56;5008670;28;20030;-68
2023/11/23 01:14:34;;;;;;;6.63;4.28;;;;;;;18.97;43.50;102359.38;5023792;28;20042;-68
2023/11/23 01:16:59;;;;;;;8.13;5.55;;;;;;;18.97;43.36;102356.72;5007670;28;20029;-68
2023/11/23 01:19:25;;;;;;;6.75;4.43;;;;;;;18.97;43.92;102350.59;5008465;28;20026;-68
2023/11/23 01:21:50;;;;;;;5.85;4.07;;;;;;;18.95;43.48;102358.63;5008869;28;20018;-68
2023/11/23 01:24:17;;;;;;;6.63;4.78;;;;;;;18.95;43.80;102355.13;5008401;28;20116;-69
2023/11/23 01:26:42;;;;;;;10.13;4.68;;;;;;;18.95;43.66;102355.97;5008811;28;20072;-68
2023/11/23 01:29:08;;;;;;;6.50;4.63;;;;;;;18.94;43.66;102346.34;5008166;28;20050;-67
2023/11/23 01:31:34;;;;;;;8.30;4.72;;;;;;;18.94;43.86;102342.88;5009063;28;20478;-67
2023/11/23 01:33:59;;;;;;;6.22;4.05;;;;;;;18.92;43.61;102331.53;5008755;28;20066;-68
2023/11/23 01:36:25;;;;;;;7.63;4.55;;;;;;;18.91;43.67;102337.75;5023607;28;20129;-67
2023/11/23 01:38:50;;;;;;;8.23;4.38;;;;;;;18.91;43.62;102343.03;5008522;28;20041;-67
2023/11/23 01:41:15;;;;;;;5.57;3.88;;;;;;;18.90;43.96;102338.69;5008697;28;20033;-67
2023/11/23 01:43:44;;;;;;;8.10;4.82;;;;;;;18.89;43.64;102337.00;5008615;28;20500;-66
2023/11/23 01:46:09;;;;;;;7.90;4.35;;;;;;;18.89;43.72;102339.66;5008356;28;20029;-67
2023/11/23 01:48:35;;;;;;;7.07;4.18;;;;;;;18.88;43.67;102336.16;5008747;28;21109;-67
2023/11/23 01:51:01;;;;;;;5.75;4.15;;;;;;;18.89;43.74;102339.66;5008523;28;20049;-68
2023/11/23 01:53:27;;;;;;;6.60;4.15;;;;;;;18.85;43.97;102337.19;5008269;28;20033;-67
2023/11/23 01:55:53;;;;;;;8.93;4.47;;;;;;;18.87;43.92;102341.53;5008373;28;20037;-67
2023/11/23 01:58:19;;;;;;;7.28;4.10;;;;;;;18.85;43.75;102339.00;5007451;28;20076;-67
2023/11/23 02:00:45;;;;;;;7.75;4.65;;;;;;;18.84;44.02;102342.56;5008338;28;20026;-67
2023/11/23 02:03:11;;;;;;;6.55;4.50;;;;;;;18.84;43.95;102334.66;5008195;28;20052;-66
2023/11/23 02:05:36;;;;;;;6.18;3.90;;;;;;;18.83;43.96;102320.56;5008409;28;20467;-69
2023/11/23 02:08:02;;;;;;;6.38;4.25;;;;;;;18.82;43.85;102316.22;5007962;28;20364;-67
2023/11/23 02:10:27;;;;;;;7.20;4.13;;;;;;;18.82;43.68;102325.94;5008353;28;20374;-66
2023/11/23 02:12:55;;;;;;;6.97;4.40;;;;;;;18.80;43.75;102323.41;5007366;28;20038;-68
2023/11/23 02:15:22;;;;;;;7.03;4.25;;;;;;;18.80;43.96;102322.53;5007788;28;20132;-67
2023/11/23 02:17:58;;;;;;;8.60;4.13;;;;;;;18.80;43.88;102333.97;5007694;28;20034;-67
2023/11/23 02:20:23;;;;;;;6.10;3.97;;;;;;;18.80;43.81;102320.75;5006243;28;20034;-67
2023/11/23 02:22:48;;;;;;;6.22;3.80;;;;;;;18.80;44.10;102330.44;5007503;28;20030;-66
2023/11/23 02:25:14;;;;;;;7.13;4.30;;;;;;;18.79;43.90;102328.78;5008270;28;20439;-66
2023/11/23 02:27:39;;;;;;;6.72;4.07;;;;;;;18.78;44.06;102332.34;5007995;28;20030;-68
2023/11/23 02:30:08;;;;;;;8.13;4.25;;;;;;;18.78;43.90;102327.06;5007064;28;20056;-66
2023/11/23 02:32:33;;;;;;;6.28;4.20;;;;;;;18.77;43.91;102323.59;5007192;28;20029;-66
2023/11/23 02:34:59;;;;;;;7.45;4.38;;;;;;;18.77;44.09;102325.34;5007380;28;20089;-67
2023/11/23 02:37:25;;;;;;;6.25;3.72;;;;;;;18.76;44.08;102326.31;5007795;28;20037;-67
2023/11/23 02:39:50;;;;;;;6.35;4.18;;;;;;;18.76;44.21;102321.88;5007353;28;20371;-67
2023/11/23 02:42:15;;;;;;;6.13;4.20;;;;;;;18.76;44.12;102327.16;5007078;28;20493;-65
2023/11/23 02:44:40;;;;;;;6.32;3.60;;;;;;;18.76;44.31;102319.22;5007789;28;20036;-67
2023/11/23 02:47:06;;;;;;;5.68;3.55;;;;;;;18.76;44.34;102310.47;5007466;28;20477;-66
2023/11/23 02:49:31;;;;;;;5.40;3.60;;;;;;;18.76;44.30;102319.22;5006790;28;20029;-67
2023/11/23 02:51:57;;;;;;;5.88;3.67;;;;;;;18.77;44.36;102306.88;5007384;28;20032;-67
2023/11/23 02:54:23;;;;;;;6.72;3.80;;;;;;;18.76;44.14;102308.66;5008038;28;20474;-68
2023/11/23 02:56:49;;;;;;;6.35;4.00;;;;;;;18.76;44.71;102300.75;5007860;28;20072;-66
2023/11/23 02:59:15;;;;;;;6.60;4.07;;;;;;;18.76;44.16;102318.41;5007741;28;20025;-67
2023/11/23 03:01:41;;;;;;;6.22;3.88;;;;;;;18.75;44.54;102312.25;5007452;28;20038;-68
2023/11/23 03:04:07;;;;;;;6.90;3.85;;;;;;;18.74;44.46;102315.84;5007289;28;20421;-69
2023/11/23 03:06:32;;;;;;;6.90;4.00;;;;;;;18.74;44.35;102314.97;5007308;28;20042;-67
2023/11/23 03:08:58;;;;;;;5.30;3.38;;;;;;;18.74;44.47;102314.97;5007328;28;20029;-67
2023/11/23 03:11:26;;;;;;;5.30;3.60;;;;;;;18.74;44.41;102312.34;5007001;28;20026;-66
2023/11/23 03:13:54;;;;;;;5.65;3.72;;;;;;;18.72;44.63;102311.59;5007020;28;20808;-67
2023/11/23 03:16:20;;;;;;;5.65;3.78;;;;;;;18.72;44.62;102308.94;5007131;28;20049;-66
2023/11/23 03:18:46;;;;;;;6.47;3.72;;;;;;;18.70;44.62;102301.13;5006862;28;20145;-67
2023/11/23 03:21:11;;;;;;;6.28;3.75;;;;;;;18.72;44.40;102298.38;5007218;28;20165;-67
2023/11/23 03:23:37;;;;;;;5.45;3.40;;;;;;;18.71;44.54;102299.31;5006547;28;20033;-68
2023/11/23 03:26:03;;;;;;;5.97;3.70;;;;;;;18.71;44.47;102300.19;5006868;28;20042;-68
2023/11/23 03:28:29;;;;;;;6.03;3.50;;;;;;;18.70;44.57;102301.13;5005756;28;20046;-67
2023/11/23 03:30:54;;;;;;;7.22;3.90;;;;;;;18.70;44.56;102295.00;5006682;28;20393;-68
2023/11/23 03:33:19;;;;;;;5.75;3.13;;;;;;;18.70;44.58;102289.72;5005889;28;20384;-67
2023/11/23 03:35:45;;;;;;;5.70;3.75;;;;;;;18.70;44.72;102293.19;5006112;28;20069;-66
2023/11/23 03:38:10;;;;;;;9.32;3.42;;;;;;;18.68;44.72;102293.28;5006006;28;20438;-67
2023/11/23 03:40:37;;;;;;;6.72;3.78;;;;;;;18.69;44.51;102294.13;5006128;28;20022;-66
2023/11/23 03:43:02;;;;;;;7.40;3.55;;;;;;;18.70;44.86;102285.28;5007096;28;20064;-65
2023/11/23 03:45:28;;;;;;;6.22;3.70;;;;;;;18.68;44.91;102285.38;5006367;28;20042;-68
2023/11/23 03:47:53;;;;;;;6.13;3.70;;;;;;;18.67;44.73;102294.25;5006592;28;20037;-66
2023/11/23 03:50:19;;;;;;;6.90;3.83;;;;;;;18.67;44.62;102294.25;5007273;28;20485;-69
2023/11/23 03:52:44;;;;;;;4.90;3.10;;;;;;;18.68;44.64;102301.22;5006903;28;20026;-66
2023/11/23 03:55:10;;;;;;;5.82;3.67;;;;;;;18.66;44.66;102289.91;5006808;28;20066;-66
2023/11/23 03:57:36;;;;;;;6.22;3.53;;;;;;;18.66;44.79;102289.06;5006593;28;20442;-66
2023/11/23 04:00:04;;;;;;;6.10;3.78;;;;;;;18.66;44.66;102286.41;5006319;28;20533;-67
2023/11/23 04:02:30;;;;;;;6.20;3.85;;;;;;;18.66;44.70;102289.06;5006245;28;20069;-67
2023/11/23 04:04:55;;;;;;;5.90;3.47;;;;;;;18.64;44.74;102297.06;5005966;28;20482;-66
2023/11/23 04:07:20;;;;;;;6.57;3.75;;;;;;;18.65;44.74;102295.28;5006144;28;20037;-67
2023/11/23 04:09:46;;;;;;;6.15;3.45;;;;;;;18.64;44.74;102294.44;5005827;28;20045;-68
2023/11/23 04:12:11;;;;;;;5.30;3.38;;;;;;;18.64;44.67;102293.56;5006416;28;20057;-68
2023/11/23 04:14:36;;;;;;;5.68;3.63;;;;;;;18.62;44.81;102283.09;5005346;28;20065;-69
2023/11/23 04:17:02;;;;;;;5.50;3.42;;;;;;;18.62;44.76;102284.91;5005883;28;20034;-67
2023/11/23 04:19:27;;;;;;;5.95;3.60;;;;;;;18.62;44.86;102283.09;5005794;28;20133;-68
2023/11/23 04:21:52;;;;;;;8.30;3.55;;;;;;;18.63;44.83;102286.59;5004226;28;20084;-68
2023/11/23 04:24:18;;;;;;;6.80;3.20;;;;;;;18.62;45.04;102280.44;5005669;28;20030;-69
2023/11/23 04:26:43;;;;;;;5.93;3.58;;;;;;;18.60;45.09;102273.59;5006076;28;20042;-67
2023/11/23 04:29:10;;;;;;;5.93;3.72;;;;;;;18.59;44.98;102277.16;5006016;28;20072;-68
2023/11/23 04:31:35;;;;;;;6.00;3.30;;;;;;;18.59;45.06;102272.72;5005234;28;20034;-66
2023/11/23 04:34:01;;;;;;;6.95;3.72;;;;;;;18.59;44.70;102278.00;5007290;28;20036;-68
2023/11/23 04:36:28;;;;;;;5.82;3.33;;;;;;;18.58;44.98;102278.09;5005770;28;20417;-67
2023/11/23 04:38:54;;;;;;;5.95;3.45;;;;;;;18.58;45.14;102280.72;5005449;28;20048;-67
2023/11/23 04:41:19;;;;;;;5.72;3.63;;;;;;;18.58;44.95;102286.88;5019362;28;20037;-67
2023/11/23 04:43:44;;;;;;;6.43;3.42;;;;;;;18.59;45.00;102279.78;5008319;28;20116;-68
2023/11/23 04:46:10;;;;;;;5.07;3.20;;;;;;;18.58;45.16;102289.53;5010263;28;20029;-67
2023/11/23 04:48:35;;;;;;;5.80;3.38;;;;;;;18.58;45.27;102289.53;5009681;28;20189;-69
2023/11/23 04:51:01;;;;;;;4.57;2.85;;;;;;;18.58;45.17;102280.72;5009868;28;20386;-69
2023/11/23 04:53:26;;;;;;;4.80;3.08;;;;;;;18.57;45.20;102279.88;5009660;28;20125;-68
2023/11/23 04:55:51;;;;;;;7.10;3.30;;;;;;;18.57;45.10;102285.16;5010639;28;20049;-66
2023/11/23 04:58:17;;;;;;;7.60;3.78;;;;;;;18.58;45.13;102288.66;5008101;28;20260;-66
2023/11/23 05:00:42;;;;;;;6.20;3.15;;;;;;;18.57;45.34;102279.06;5008858;28;20033;-67
2023/11/23 05:03:07;;;;;;;5.90;2.85;;;;;;;18.58;45.11;102283.38;5008638;28;20042;-67
2023/11/23 05:05:33;;;;;;;5.28;3.10;;;;;;;18.58;45.12;102289.53;5008741;28;20447;-68
2023/11/23 05:07:58;;;;;;;6.32;3.30;;;;;;;18.56;45.26;102286.09;5008869;28;20057;-67
2023/11/23 05:10:24;;;;;;;5.40;2.97;;;;;;;18.57;45.29;102289.59;5009124;28;20442;-66
2023/11/23 05:12:50;;;;;;;5.47;2.92;;;;;;;18.55;45.22;102284.41;5009521;28;20021;-66
2023/11/23 05:15:16;;;;;;;6.50;4.00;;;;;;;18.56;45.38;102287.91;5008794;28;20173;-67
2023/11/23 05:17:42;;;;;;;6.18;3.08;;;;;;;18.56;45.48;102290.53;5009132;28;20030;-66
2023/11/23 05:20:08;;;;;;;5.03;3.20;;;;;;;18.55;45.17;102275.63;5009180;28;20029;-66
2023/11/23 05:22:34;;;;;;;4.90;2.90;;;;;;;18.55;45.34;102283.56;5008946;28;20085;-66
2023/11/23 05:24:59;;;;;;;4.85;3.15;;;;;;;18.55;45.40;102283.56;5008861;28;20033;-67
2023/11/23 05:27:24;;;;;;;5.25;3.20;;;;;;;18.55;45.35;102288.84;5010125;28;20387;-65
2023/11/23 05:29:49;;;;;;;6.03;3.17;;;;;;;18.54;45.43;102287.16;5008989;28;20049;-66
2023/11/23 05:32:15;;;;;;;4.85;2.90;;;;;;;18.53;45.47;102281.00;5008648;28;20080;-66
2023/11/23 05:34:40;;;;;;;5.15;2.92;;;;;;;18.53;45.17;102288.91;5008189;28;20042;-67
2023/11/23 05:37:05;;;;;;;5.03;3.10;;;;;;;18.54;45.38;102289.78;5008479;28;20029;-66
2023/11/23 05:39:32;;;;;;;6.38;3.13;;;;;;;18.53;45.30;102285.44;5008193;28;20022;-69
2023/11/23 05:41:57;;;;;;;4.97;3.10;;;;;;;18.54;45.48;102281.88;5008170;28;20026;-67
2023/11/23 05:44:23;;;;;;;7.43;3.47;;;;;;;18.52;45.23;102283.72;5007351;28;20037;-66
2023/11/23 05:46:49;;;;;;;5.47;3.42;;;;;;;18.52;45.00;102289.88;5007647;28;20355;-68
2023/11/23 05:49:17;;;;;;;6.40;2.90;;;;;;;18.52;45.71;102281.09;5007770;28;20029;-66
2023/11/23 05:51:42;;;;;;;5.72;3.25;;;;;;;18.52;45.51;102275.81;5007467;28;20029;-67
2023/11/23 05:54:08;;;;;;;6.25;3.15;;;;;;;18.52;45.57;102276.69;5007439;28;20048;-67
2023/11/23 05:56:33;;;;;;;5.80;3.20;;;;;;;18.51;45.43;102277.63;5007750;28;20481;-67
2023/11/23 05:58:58;;;;;;;5.37;3.00;;;;;;;18.51;45.54;102274.13;5007617;28;20257;-67
2023/11/23 06:01:23;;;;;;;5.50;3.20;;;;;;;18.51;45.42;102276.78;5007315;28;20255;-67
2023/11/23 06:03:49;;;;;;;4.25;2.50;;;;;;;18.52;45.29;102268.75;5007431;28;20022;-67
2023/11/23 06:06:23;;;;;;;4.38;2.55;;;;;;;18.54;45.28;102268.69;5008068;28;20462;-68
2023/11/23 06:08:49;;;;;;;5.03;2.85;;;;;;;18.55;45.21;102268.59;5007463;28;20034;-66
2023/11/23 06:11:15;;;;;;;4.40;2.60;;;;;;;18.57;45.32;102265.84;5007131;28;20040;-68
2023/11/23 06:13:42;;;;;;;4.40;2.20;;;;;;;18.58;45.48;102252.56;5007305;28;20026;-69
2023/11/23 06:16:08;;;;;;;5.13;2.10;;;;;;;18.59;45.41;102253.41;5007010;28;20037;-68
2023/11/23 06:18:33;;;;;;;4.80;1.90;;;;;;;18.63;45.11;102241.72;5007204;28;20091;-68
2023/11/23 06:20:59;;;;;;;3.92;1.90;;;;;;;18.68;45.38;102244.91;5007210;28;20034;-69
2023/11/23 06:23:24;;;;;;;4.53;2.00;;;;;;;18.72;45.36;102250.84;5005951;28;20049;-69
2023/11/23 06:25:49;;;;;;;5.13;2.28;;;;;;;18.77;44.95;102244.34;5007294;28;20026;-66
2023/11/23 06:28:15;;;;;;;4.03;2.30;;;;;;;18.84;45.24;102252.78;5006658;28;20125;-68
2023/11/23 06:30:40;;;;;;;4.57;1.83;;;;;;;18.87;45.33;102252.59;5007276;28;20425;-67
2023/11/23 06:33:05;;;;;;;5.25;2.00;;;;;;;18.91;45.06;102256.72;5007558;28;20033;-67
2023/11/23 06:35:31;;;;;;;4.35;2.17;;;;;;;18.95;45.19;102257.38;5007226;28;20117;-66
2023/11/23 06:37:57;;;;;;;3.70;1.90;;;;;;;18.98;45.30;102258.03;5006801;28;20034;-68
2023/11/23 06:40:23;;;;;;;4.30;2.08;;;;;;;19.02;45.14;102250.75;5006948;28;20338;-67
2023/11/23 06:42:48;;;;;;;4.00;1.75;;;;;;;19.02;44.97;102258.69;5006745;28;20451;-67
2023/11/23 06:45:16;;;;;;;4.22;1.70;;;;;;;19.06;45.29;102257.56;5021797;28;20842;-68
2023/11/23 06:47:41;;;;;;;3.63;1.70;;;;;;;19.08;45.30;102266.22;5006872;28;20425;-69
2023/11/23 06:50:08;;;;;;;5.88;1.95;;;;;;;19.09;45.32;102253.84;5006726;28;20036;-67
2023/11/23 06:52:33;;;;;;;3.75;1.80;;;;;;;19.08;45.25;102255.66;5006858;28;20026;-67
2023/11/23 06:54:58;;;;;;;3.47;1.80;;;;;;;19.09;45.03;102257.38;5005671;28;20052;-68
2023/11/23 06:57:24;;;;;;;4.68;1.90;;;;;;;19.11;45.03;102255.47;5006776;28;20022;-67
2023/11/23 06:59:49;;;;;;;4.47;1.70;;;;;;;19.10;45.20;102247.63;5006361;28;20486;-66
2023/11/23 07:02:14;;;;;;;3.20;1.75;;;;;;;19.11;45.13;102244.06;5006739;28;20117;-70
2023/11/23 07:04:40;;;;;;;3.40;1.88;;;;;;;19.10;45.06;102232.63;5005873;28;20447;-67
2023/11/23 07:07:06;;;;;;;3.53;1.75;;;;;;;19.11;45.00;102230.84;5006419;28;20072;-69
2023/11/23 07:09:32;;;;;;;3.88;1.80;;;;;;;19.08;45.29;102221.31;5005670;28;20053;-68
2023/11/23 07:11:58;;;;;;;3.35;1.65;;;;;;;19.09;45.08;102220.38;5006252;28;20471;-67
2023/11/23 07:14:23;;;;;;;3.83;1.83;;;;;;;19.09;45.04;102223.03;5006395;28;20052;-67
2023/11/23 07:16:51;;;;;;;4.28;1.90;;;;;;;19.08;45.25;102223.94;5006851;28;20061;-69
2023/11/23 07:19:18;;;;;;;3.85;1.73;;;;;;;19.08;45.04;102225.75;5005293;28;20060;-69
2023/11/23 07:21:44;;;;;;;3.58;1.63;;;;;;;19.07;45.03;102222.25;5006564;28;20141;-68
2023/11/23 07:24:09;;;;;;;2.85;1.60;;;;;;;19.08;45.18;102226.59;5006693;28;20121;-67
2023/11/23 07:26:35;;;;;;;4.53;2.00;;;;;;;19.06;45.25;102230.28;5006443;28;20026;-68
2023/11/23 07:29:00;;;;;;;4.68;1.70;;;;;;;19.04;45.45;102214.50;5007226;28;20049;-68
2023/11/23 07:31:25;;;;;;;4.07;1.90;;;;;;;19.05;45.30;102220.66;5007367;28;20038;-68
2023/11/23 07:33:50;;;;;;;3.22;1.63;;;;;;;19.02;45.40;102209.31;5006665;28;20655;-68
2023/11/23 07:36:16;;;;;;;3.95;1.70;;;;;;;19.02;45.29;102206.69;5006582;28;20038;-68
2023/11/23 07:38:44;;;;;;;4.32;1.77;;;;;;;19.02;45.46;102211.97;5006822;28;20044;-68
2023/11/23 07:41:11;;;;;;;2.92;1.50;;;;;;;19.02;45.39;102214.59;5005455;28;20034;-68
2023/11/23 07:43:36;;;;;;;3.15;1.52;;;;;;;19.00;45.50;102215.66;5006386;28;20038;-68
2023/11/23 07:46:02;;;;;;;3.20;1.50;;;;;;;19.01;45.24;102212.94;5006206;28;20088;-67
2023/11/23 07:48:28;;;;;;;3.95;1.63;;;;;;;19.02;45.50;102232.25;5006630;28;20065;-67
2023/11/23 07:50:54;;;;;;;4.30;1.70;;;;;;;19.01;45.48;102215.56;5006571;28;20025;-68
2023/11/23 07:53:19;;;;;;;3.42;1.58;;;;;;;19.01;45.18;102223.50;5005589;28;21167;-68
2023/11/23 07:55:45;;;;;;;4.93;1.88;;;;;;;18.98;45.47;102223.69;5006495;28;20057;-68
2023/11/23 07:58:11;;;;;;;4.55;1.65;;;;;;;18.99;45.22;102204.25;5006837;28;20064;-67
2023/11/23 08:00:40;;;;;;;3.40;1.50;;;;;;;19.01;45.41;102209.44;5006018;28;20021;-68
2023/11/23 08:03:05;;;;;;;4.03;1.80;;;;;;;19.01;45.42;102185.69;5016908;28;20120;-70
2023/11/23 08:05:31;;;;;;;3.92;1.42;;;;;;;19.01;45.32;102204.16;5006819;28;20447;-70
2023/11/23 08:07:57;;;;;;;8.52;1.67;;;;;;;19.02;45.53;102211.97;5006071;28;20030;-69
2023/11/23 08:10:22;;;;;;;3.40;1.60;;;;;;;19.04;45.55;102206.59;5006890;28;20087;-68
2023/11/23 08:12:47;;;;;;;3.40;1.85;;;;;;;19.05;45.39;102210.09;5006349;28;20071;-69
2023/11/23 08:15:13;;;;;;;6.43;2.20;;;;;;;19.05;45.54;102210.94;5005653;28;20052;-68
2023/11/23 08:17:38;;;;;;;4.47;1.85;;;;;;;19.08;45.33;102215.19;5009341;28;20625;-68
2023/11/23 08:20:07;;;;;;;4.40;1.90;;;;;;;19.07;45.70;102222.25;5008898;28;20033;-69
2023/11/23 08:22:35;;;;;;;3.65;1.60;;;;;;;19.07;45.65;102209.03;5010344;28;20481;-68
2023/11/23 08:25:00;;;;;;;3.47;1.70;;;;;;;19.10;45.78;102213.28;5009483;28;20037;-68
2023/11/23 08:27:25;;;;;;;4.30;1.67;;;;;;;19.11;45.86;102221.13;5008672;28;20029;-68
2023/11/23 08:29:52;;;;;;;6.90;2.03;;;;;;;19.12;45.95;102206.09;5011289;28;20045;-69
2023/11/23 08:32:18;;;;;;;3.25;1.60;;;;;;;19.12;45.82;102203.47;5010547;28;20366;-68
2023/11/23 08:34:44;;;;;;;3.55;1.60;;;;;;;19.12;45.95;102200.81;5009316;28;20129;-68
2023/11/23 08:37:09;;;;;;;5.38;1.98;;;;;;;19.12;45.26;102193.75;5009375;28;20124;-68
2023/11/23 08:39:35;;;;;;;3.55;1.70;;;;;;;19.12;45.89;102191.13;5008838;28;20034;-68
2023/11/23 08:42:00;;;;;;;4.85;1.90;;;;;;;19.14;46.12;102183.09;5010158;28;20431;-68
2023/11/23 08:44:26;;;;;;;4.53;2.10;;;;;;;19.13;46.12;102184.03;5011402;28;20034;-67
2023/11/23 08:46:51;;;;;;;4.13;1.80;;;;;;;19.15;46.11;102182.13;5009937;28;20382;-66
2023/11/23 08:49:16;;;;;;;4.10;2.00;;;;;;;19.15;46.41;102184.75;5010078;28;20087;-67
2023/11/23 08:51:42;;;;;;;5.30;1.88;;;;;;;19.16;46.38;102199.69;5009715;28;20033;-67
2023/11/23 08:54:08;;;;;;;5.18;2.22;;;;;;;19.17;46.50;102181.09;5010467;28;20087;-68
2023/11/23 08:56:34;;;;;;;4.05;2.00;;;;;;;19.16;46.38;102181.19;5010416;28;20045;-67
2023/11/23 08:58:59;;;;;;;4.20;1.90;;;;;;;19.17;46.50;102178.44;5009566;28;20030;-68
2023/11/23 09:01:26;;;;;;;4.15;1.77;;;;;;;19.19;46.66;102165.13;5010728;28;20030;-69
2023/11/23 09:03:52;;;;;;;4.30;1.98;;;;;;;19.19;46.40;102154.56;5009548;28;20055;-67
2023/11/23 09:06:18;;;;;;;5.50;2.35;;;;;;;19.19;46.53;102155.41;5009156;28;20121;-68
2023/11/23 09:08:43;;;;;;;3.90;1.80;;;;;;;19.17;46.68;102133.53;5009286;28;20120;-68
2023/11/23 09:11:09;;;;;;;4.13;1.93;;;;;;;19.19;46.70;102139.53;5020067;28;20129;-68
2023/11/23 09:13:35;;;;;;;6.43;1.98;;;;;;;19.18;46.91;102159.00;5009368;28;20333;-67
2023/11/23 09:16:01;;;;;;;7.43;2.15;;;;;;;19.20;46.79;102161.53;5008611;28;20056;-67
2023/11/23 09:18:26;;;;;;;4.55;2.03;;;;;;;19.20;46.87;102162.41;5009758;28;20025;-67
2023/11/23 09:20:51;;;;;;;4.85;2.00;;;;;;;19.18;46.76;102174.88;5008493;28;20438;-66
2023/11/23 09:23:17;;;;;;;6.10;1.90;;;;;;;19.18;46.80;102177.50;5009376;28;20037;-67
2023/11/23 09:25:46;;;;;;;5.40;2.00;;;;;;;19.21;47.13;102179.09;5008058;28;20405;-67
2023/11/23 09:28:11;;;;;;;5.35;2.00;;;;;;;19.23;47.05;102157.84;5007939;28;20022;-68
2023/11/23 09:30:37;;;;;;;6.13;2.10;;;;;;;19.19;47.08;102165.13;5005770;28;20385;-68
2023/11/23 09:33:03;;;;;;;5.65;2.20;;;;;;;19.16;47.20;102158.25;5009172;28;20041;-66
2023/11/23 09:35:29;;;;;;;5.20;2.22;;;;;;;19.09;47.76;102156.09;5008619;28;20489;-69
2023/11/23 09:37:54;;;;;;;4.13;2.20;;;;;;;19.06;47.80;102145.72;5007599;28;20037;-69
2023/11/23 09:40:20;;;;;;;5.63;2.42;;;;;;;19.05;48.07;102149.31;5012784;28;20029;-69
2023/11/23 09:42:47;;;;;;;5.65;2.13;;;;;;;19.05;48.10;102136.13;5007934;28;20112;-69
2023/11/23 09:45:16;;;;;;;4.45;2.20;;;;;;;19.05;48.10;102131.66;5002859;28;20121;-68
2023/11/23 09:47:42;;;;;;;6.15;2.50;;;;;;;19.05;48.36;102123.75;5003097;28;20033;-70
2023/11/23 09:50:09;;;;;;;5.93;2.33;;;;;;;19.10;48.42;102128.72;5003748;28;20033;-70
2023/11/23 09:52:37;;;;;;;5.43;2.50;;;;;;;19.14;48.86;102120.50;5002526;28;20811;-70
2023/11/23 09:55:07;;;;;;;5.93;3.08;;;;;;;19.18;49.07;102134.34;5002519;28;20377;-71
2023/11/23 09:57:33;;;;;;;9.52;3.53;;;;;;;19.21;49.54;102147.38;5002487;28;20049;-70
2023/11/23 09:59:58;;;;;;;6.15;3.00;;;;;;;19.27;49.82;102151.41;5002856;28;20030;-68
2023/11/23 10:02:24;;;;;;;6.97;2.95;;;;;;;19.27;49.87;102132.91;5002692;28;20042;-70
2023/11/23 10:04:52;;;;;;;7.03;3.33;;;;;;;19.28;50.08;102121.38;5002396;28;20160;-71
2023/11/23 10:07:18;;;;;;;6.38;2.92;;;;;;;19.25;50.32;102127.75;5002447;28;20037;-70
2023/11/23 10:09:44;;;;;;;7.60;3.50;;;;;;;19.30;50.38;102132.72;5001719;28;20048;-68
2023/11/23 10:12:09;;;;;;;8.70;2.83;;;;;;;19.30;50.20;102130.09;5002529;28;20022;-69
2023/11/23 10:14:35;;;;;;;7.63;3.00;;;;;;;19.31;49.68;102134.41;5002813;28;20034;-69
2023/11/23 10:17:00;;;;;;;7.47;3.28;;;;;;;19.35;50.29;102122.69;5002910;28;20030;-70
2023/11/23 10:19:25;;;;;;;6.53;2.70;;;;;;;19.35;50.41;102112.13;5002768;28;20026;-69
2023/11/23 10:22:03;;;;;;;7.30;2.97;;;;;;;19.34;50.14;102113.91;5004600;28;20048;-68
2023/11/23 10:24:31;;;;;;;7.63;2.78;;;;;;;19.42;50.12;102100.16;5002830;28;20490;-68
2023/11/23 10:26:57;;;;;;;6.55;2.70;;;;;;;19.47;49.78;102087.50;5001755;28;20523;-67
2023/11/23 10:29:29;;;;;;;5.95;2.75;;;;;;;19.50;49.70;102078.50;5000881;28;20049;-70
2023/11/23 10:32:17;;;;;;;6.53;2.85;;;;;;;19.40;49.67;102083.56;5002743;28;20117;-69
2023/11/23 10:34:43;;;;;;;6.40;3.53;;;;;;;19.37;50.06;102078.47;5002369;28;20110;-69
2023/11/23 10:37:13;;;;;;;6.72;2.83;;;;;;;19.43;49.50;102088.66;5002491;28;20061;-69
2023/11/23 10:39:39;;;;;;;4.78;2.30;;;;;;;19.50;49.83;102086.44;5001586;28;20470;-70
2023/11/23 10:42:05;;;;;;;7.32;2.70;;;;;;;19.49;49.38;102076.81;5002354;28;20040;-70
2023/11/23 10:44:32;;;;;;;6.28;2.67;;;;;;;19.47;49.27;102084.00;5002060;28;20577;-68
2023/11/23 10:47:04;;;;;;;5.75;2.80;;;;;;;19.47;49.17;102081.34;5001003;28;20037;-69
2023/11/23 10:49:36;;;;;;;8.50;2.70;;;;;;;19.45;49.22;102073.53;5002750;28;20116;-70
2023/11/23 10:52:08;;;;;;;7.75;2.97;;;;;;;19.44;49.33;102081.56;5002711;28;20478;-69
2023/11/23 10:54:34;;;;;;;7.55;2.75;;;;;;;19.44;49.00;102073.63;5003008;28;20116;-68
2023/11/23 10:57:03;;;;;;;6.53;2.35;;;;;;;19.44;49.24;102077.13;5002093;28;20159;-69
2023/11/23 10:59:30;;;;;;;7.30;2.70;;;;;;;19.42;49.10;102068.44;5002861;28;20478;-68
2023/11/23 11:01:57;;;;;;;5.65;2.90;;;;;;;19.43;49.05;102078.06;5002543;28;20370;-67
2023/11/23 11:04:23;;;;;;;5.95;2.83;;;;;;;19.40;49.16;102075.63;5002746;28;20041;-69
2023/11/23 11:06:54;;;;;;;6.25;2.58;;;;;;;19.36;49.47;102071.53;5001354;28;20360;-67
2023/11/23 11:09:25;;;;;;;7.43;2.70;;;;;;;19.32;49.10;102064.72;5002635;28;20034;-68
2023/11/23 11:11:55;;;;;;;7.55;2.53;;;;;;;19.31;49.22;102055.97;5002851;28;20369;-69
2023/11/23 11:14:34;;;;;;;5.13;2.17;;;;;;;19.28;49.22;102050.88;5002176;28;20041;-69
2023/11/23 11:17:06;;;;;;;5.28;2.53;;;;;;;19.27;49.36;102051.81;5002809;28;20026;-69
2023/11/23 11:19:45;;;;;;;6.03;2.50;;;;;;;19.26;49.04;102038.72;5002041;28;20034;-69